Hauptseite
METAR-TAF:

METAR-TAF

Flughäfen :

Düsseldorf Airport

Düsseldorf, Deutschland

Breite: 51-18N, Länge: 006-46E, Höhe: 45 m

Beobachtung

Neuester Wetterbericht von vor 22 Minuten, um 15:50 UTC
Wind 8 kt aus Süd
Temperatur 21°C
Luftfeuchtigkeit 73%
Luftdruck 1015 hPa
Sichtweite 10 km oder mehr
Leicht bewölkt in der Höhe von 2800 ft

METAR: EDDL 261550Z 19008KT 9999 FEW028 21/16 Q1015 NOSIG

Zeit: 18:12 (16:12 UTC)

Prognose

Neuester Wetterbericht von vor 5 Stunden und 12 Minuten, um 11:00 UTC
Gültige Prognose vom 26 um 12 UTC bis 27 um 18 UTC
Wind 8 kt aus Süd
Sichtweite 10 km oder mehr
Aufgelockert bewölkt in der Höhe von 4000 ft
Übergehend zu
vom 27 um 08 UTC bis 27 um 11 UTC
Wind 13 kt aus Süd/Südwest
Zeitweise
vom 27 um 16 UTC bis 27 um 18 UTC
Durchbrochene Bewölkung in der Höhe von 1300 ft
Regen

TAF: EDDL 261100Z 2612/2718 18008KT 9999 SCT040 BECMG 2708/2711 20013KT TEMPO 2716/2718 RA BKN013

Wetterbeobachtungen und Prognosen von mehr als 4000 Flughäfen (METAR und TAF Bericht).

Die verfügbaren Stationen werden durch gelbe und rote Markierungen auf der Karte dargestellt.

Führen Sie die Maus auf sie, um den Namen der Station zu sehen.

Darauf klicken, um die Beobachtung von Wetterbeobachtungen und Prognosen zu sehen.

Um die Karte zu ändern : klicken Sie auf den grünen Tasten mit einem schwarzen Kreuz Zum Vergrößern, auf den grünen Button mit einem Gedankenstrich zu verkleinern, oder auf die grünen Pfeile für benachbarte Karten.


METAR-TAF: